createdAt,value
2017-12-23T00:00:42.078Z,97.40
2017-12-23T00:03:09.678Z,98.80
2017-12-23T00:05:38.033Z,99.00
2017-12-23T00:08:06.034Z,99.00
2017-12-23T00:10:33.592Z,98.80
2017-12-23T00:13:01.182Z,98.80
2017-12-23T00:15:28.810Z,98.70
2017-12-23T00:17:56.572Z,98.50
2017-12-23T00:20:24.123Z,98.80
2017-12-23T00:22:52.489Z,98.30
2017-12-23T00:25:20.111Z,98.30
2017-12-23T00:27:49.030Z,98.40
2017-12-23T00:30:16.711Z,98.20
2017-12-23T00:32:45.024Z,98.10
2017-12-23T00:35:12.569Z,98.10
2017-12-23T00:37:40.172Z,98.30
2017-12-23T00:40:07.712Z,98.40
2017-12-23T00:42:36.999Z,98.20
2017-12-23T00:45:04.596Z,98.20
2017-12-23T00:47:32.195Z,98.20
2017-12-23T00:49:59.747Z,98.10
2017-12-23T00:52:27.311Z,98.10
2017-12-23T00:54:54.872Z,98.20
2017-12-23T00:57:22.452Z,98.10
2017-12-23T00:59:50.826Z,98.10
2017-12-23T01:02:19.146Z,98.10
2017-12-23T01:04:46.712Z,98.10
2017-12-23T01:07:28.160Z,98.10
2017-12-23T01:16:17.510Z,98.40
2017-12-23T01:18:45.047Z,98.30
2017-12-23T01:21:14.283Z,98.70
2017-12-23T01:23:41.899Z,98.70
2017-12-23T01:26:09.439Z,98.40
2017-12-23T01:28:36.995Z,98.50
2017-12-23T01:31:04.584Z,98.40
2017-12-23T01:33:32.895Z,98.50
2017-12-23T01:36:00.455Z,98.50
2017-12-23T01:38:28.023Z,98.50
2017-12-23T01:40:55.591Z,98.40
2017-12-23T01:43:23.127Z,98.40
2017-12-23T01:45:50.714Z,98.30
2017-12-23T01:48:30.134Z,98.30
2017-12-23T01:50:57.715Z,98.30
2017-12-23T01:53:26.415Z,98.30
2017-12-23T01:55:53.987Z,98.00
2017-12-23T01:58:21.599Z,97.80
2017-12-23T02:00:49.152Z,97.90
2017-12-23T02:03:16.692Z,97.90
2017-12-23T02:05:44.279Z,97.80
2017-12-23T02:08:11.824Z,97.90
2017-12-23T02:10:39.372Z,97.80
2017-12-23T02:13:06.939Z,97.80
2017-12-23T02:15:35.245Z,97.90
2017-12-23T02:18:03.068Z,97.90
2017-12-23T02:20:30.670Z,97.70
2017-12-23T02:22:58.238Z,97.80
2017-12-23T02:25:25.775Z,97.70
2017-12-23T02:27:53.408Z,97.70
2017-12-23T02:30:20.949Z,97.60
2017-12-23T02:32:48.491Z,97.60
2017-12-23T02:35:16.543Z,97.50
2017-12-23T02:37:44.089Z,97.50
2017-12-23T02:40:11.630Z,97.70
2017-12-23T02:42:39.220Z,97.80
2017-12-23T02:45:06.760Z,97.70
2017-12-23T02:47:34.315Z,97.80
2017-12-23T02:50:01.904Z,97.80
2017-12-23T02:52:29.479Z,97.90
2017-12-23T02:54:57.052Z,98.00
2017-12-23T02:57:24.644Z,98.10
2017-12-23T02:59:52.208Z,98.00
2017-12-23T03:02:19.751Z,97.90
2017-12-23T03:04:47.324Z,98.10
2017-12-23T03:07:16.490Z,97.80
2017-12-23T03:09:44.036Z,97.70
2017-12-23T03:12:11.661Z,97.60
2017-12-23T03:14:39.204Z,97.70
2017-12-23T03:17:06.763Z,97.80
2017-12-23T03:19:34.730Z,97.80
2017-12-23T03:22:03.043Z,98.00
2017-12-23T03:24:30.592Z,97.90
2017-12-23T03:26:58.183Z,98.00
2017-12-23T03:29:25.739Z,97.90
2017-12-23T03:31:54.429Z,98.00
2017-12-23T03:34:22.072Z,98.20
2017-12-23T03:36:49.627Z,98.30
2017-12-23T03:39:17.168Z,98.30
2017-12-23T03:41:45.507Z,98.50
2017-12-23T03:44:26.375Z,98.50
2017-12-23T03:56:34.037Z,98.50
2017-12-23T03:59:01.672Z,99.00
2017-12-23T04:01:29.237Z,99.00
2017-12-23T04:03:56.859Z,98.90
2017-12-23T04:06:24.388Z,98.90
2017-12-23T04:08:51.955Z,98.70
2017-12-23T04:11:19.523Z,98.70
2017-12-23T04:13:47.091Z,98.60
2017-12-23T04:16:16.326Z,98.50
2017-12-23T04:18:43.984Z,98.40
2017-12-23T04:21:11.535Z,98.40
2017-12-23T04:23:39.072Z,98.40
2017-12-23T04:26:07.420Z,98.40
2017-12-23T04:28:34.961Z,98.40
2017-12-23T04:31:02.507Z,98.50
2017-12-23T04:33:30.083Z,98.40
2017-12-23T04:35:57.644Z,98.20
2017-12-23T04:38:25.189Z,98.00
2017-12-23T04:40:52.786Z,98.00
2017-12-23T04:43:20.344Z,98.20
2017-12-23T04:45:47.903Z,98.20
2017-12-23T04:48:17.313Z,98.00
2017-12-23T04:50:44.855Z,98.00
2017-12-23T04:53:12.412Z,98.10
2017-12-23T04:55:40.023Z,98.10
2017-12-23T04:58:07.559Z,98.20
2017-12-23T05:00:35.874Z,98.00
2017-12-23T05:03:03.473Z,98.00
2017-12-23T05:05:31.019Z,97.90
2017-12-23T05:07:58.579Z,97.80
2017-12-23T05:10:26.159Z,97.60
2017-12-23T05:12:53.707Z,97.60
2017-12-23T05:15:21.251Z,97.60
2017-12-23T05:17:48.901Z,97.60
2017-12-23T05:20:17.291Z,97.50
2017-12-23T05:22:45.233Z,97.50
2017-12-23T05:25:13.772Z,97.60
2017-12-23T05:27:41.387Z,97.50
2017-12-23T05:30:08.946Z,97.60
2017-12-23T05:32:36.560Z,97.70
2017-12-23T05:35:04.103Z,97.80
2017-12-23T05:37:31.667Z,97.70
2017-12-23T05:39:59.236Z,97.70
2017-12-23T05:42:26.780Z,97.70
2017-12-23T05:44:54.396Z,97.80
2017-12-23T05:47:22.016Z,97.70
2017-12-23T05:49:49.563Z,97.60
2017-12-23T05:52:17.118Z,97.60
2017-12-23T05:54:45.468Z,97.80
2017-12-23T05:57:25.217Z,97.80
2017-12-23T06:02:54.856Z,97.70
2017-12-23T06:05:22.400Z,97.90
2017-12-23T06:07:49.940Z,97.90
2017-12-23T06:10:17.537Z,98.00
2017-12-23T06:12:45.097Z,97.90
2017-12-23T06:15:12.659Z,97.80
2017-12-23T06:17:40.284Z,97.80
2017-12-23T06:20:07.852Z,97.70
2017-12-23T06:22:35.386Z,97.50
2017-12-23T06:25:04.323Z,97.50
2017-12-23T06:27:31.867Z,97.50
2017-12-23T06:29:59.407Z,97.60
2017-12-23T06:32:27.027Z,97.60
2017-12-23T06:34:54.571Z,97.60
2017-12-23T06:37:22.150Z,97.50
2017-12-23T06:39:49.716Z,97.50
2017-12-23T06:42:17.500Z,97.60
2017-12-23T06:44:45.794Z,97.60
2017-12-23T06:47:25.360Z,97.60
2017-12-23T06:53:23.036Z,97.70
2017-12-23T06:55:50.738Z,97.80
2017-12-23T06:58:18.288Z,98.00
2017-12-23T07:00:45.843Z,98.10
2017-12-23T07:03:28.026Z,97.80
2017-12-23T07:14:16.480Z,97.80
2017-12-23T07:16:44.041Z,98.00
2017-12-23T07:19:11.576Z,98.30
2017-12-23T07:21:39.142Z,97.90
2017-12-23T07:24:06.675Z,97.90
2017-12-23T07:26:34.825Z,97.60
2017-12-23T07:29:02.391Z,97.50
2017-12-23T07:31:29.927Z,97.60
2017-12-23T07:33:57.467Z,97.50
2017-12-23T07:36:25.883Z,97.50
2017-12-23T07:38:54.182Z,97.10
2017-12-23T07:41:21.715Z,97.10
2017-12-23T07:43:50.040Z,97.10
2017-12-23T07:46:17.579Z,97.10
2017-12-23T07:48:45.116Z,97.40
2017-12-23T07:51:14.367Z,97.30
2017-12-23T07:53:41.900Z,97.30
2017-12-23T07:56:09.439Z,97.00
2017-12-23T07:58:37.071Z,97.10
2017-12-23T08:01:04.609Z,97.10
2017-12-23T08:03:32.196Z,97.10
2017-12-23T08:05:59.886Z,97.00
2017-12-23T08:08:27.423Z,96.90
2017-12-23T08:10:55.315Z,96.90
2017-12-23T08:13:22.866Z,96.80
2017-12-23T08:15:50.419Z,96.80
2017-12-23T08:18:18.720Z,96.80
2017-12-23T08:20:46.365Z,96.80
2017-12-23T08:23:26.479Z,96.70
2017-12-23T08:29:14.016Z,96.70
2017-12-23T08:31:41.595Z,96.70
2017-12-23T08:34:09.123Z,96.90
2017-12-23T08:36:36.811Z,96.80
2017-12-23T08:39:04.347Z,96.90
2017-12-23T08:41:31.885Z,96.80
2017-12-23T08:43:59.488Z,96.90
2017-12-23T08:46:27.060Z,96.90
2017-12-23T08:48:54.662Z,96.60
2017-12-23T08:51:22.251Z,96.70
2017-12-23T08:53:49.783Z,96.60
2017-12-23T08:56:17.316Z,96.60
2017-12-23T08:58:45.681Z,96.30
2017-12-23T09:01:15.336Z,96.50
2017-12-23T09:03:42.883Z,96.50
2017-12-23T09:06:10.471Z,96.70
2017-12-23T09:08:37.999Z,96.50
2017-12-23T09:11:06.379Z,96.60
2017-12-23T09:13:35.997Z,96.60
2017-12-23T09:16:04.405Z,96.60
2017-12-23T09:18:31.947Z,96.30
2017-12-23T09:20:59.528Z,96.30
2017-12-23T09:23:28.001Z,96.30
2017-12-23T09:25:56.100Z,96.40
2017-12-23T09:28:23.665Z,96.30
2017-12-23T09:30:52.770Z,96.20
2017-12-23T09:33:20.400Z,96.20
2017-12-23T09:35:47.997Z,96.00
2017-12-23T09:38:15.635Z,96.10
2017-12-23T09:40:44.042Z,95.90
2017-12-23T09:43:12.545Z,96.00
2017-12-23T09:45:40.886Z,96.30
2017-12-23T09:48:08.443Z,96.30
2017-12-23T09:50:36.036Z,96.30
2017-12-23T09:53:03.571Z,96.10
2017-12-23T09:55:31.107Z,96.00
2017-12-23T09:57:58.668Z,95.80
2017-12-23T10:00:26.430Z,95.80
2017-12-23T10:02:53.984Z,95.50
2017-12-23T10:05:21.606Z,95.50
2017-12-23T10:07:49.907Z,95.00
2017-12-23T10:10:18.348Z,95.00
2017-12-23T10:12:45.903Z,95.40
2017-12-23T10:15:17.836Z,95.20
2017-12-23T10:17:45.367Z,94.90
2017-12-23T10:20:15.226Z,95.00
2017-12-23T10:22:42.776Z,94.70
2017-12-23T10:25:10.328Z,94.90
2017-12-23T10:27:43.355Z,95.00
2017-12-23T10:30:11.816Z,94.60
2017-12-23T10:32:39.938Z,94.70
2017-12-23T10:35:07.522Z,94.40
2017-12-23T10:37:35.873Z,94.20
2017-12-23T10:40:03.442Z,94.20
2017-12-23T10:42:31.012Z,94.10
2017-12-23T10:44:58.734Z,94.30
2017-12-23T10:47:27.075Z,94.20
2017-12-23T10:49:54.768Z,94.20
2017-12-23T10:52:23.140Z,93.30
2017-12-23T10:54:50.676Z,93.30
2017-12-23T10:57:18.243Z,93.50
2017-12-23T10:59:45.777Z,93.10
2017-12-23T11:02:24.383Z,93.40
2017-12-23T11:11:22.077Z,93.30
2017-12-23T11:13:49.609Z,92.70
2017-12-23T11:16:17.135Z,92.50
2017-12-23T11:18:44.692Z,92.40
2017-12-23T11:21:12.228Z,92.10
2017-12-23T11:23:40.540Z,92.20
2017-12-23T11:26:08.104Z,92.20
2017-12-23T11:28:35.647Z,92.20
2017-12-23T11:31:03.175Z,92.90
2017-12-23T11:33:30.884Z,91.70
2017-12-23T11:35:58.420Z,91.80
2017-12-23T11:38:25.951Z,92.00
2017-12-23T11:40:53.539Z,92.10
2017-12-23T11:43:21.476Z,92.00
2017-12-23T11:45:49.771Z,91.30
2017-12-23T11:48:17.331Z,91.30
2017-12-23T11:50:44.860Z,90.50
2017-12-23T11:53:14.092Z,91.00
2017-12-23T11:55:43.581Z,91.00
2017-12-23T11:58:11.135Z,90.80
2017-12-23T12:00:38.672Z,91.00
2017-12-23T12:03:06.253Z,90.50
2017-12-23T12:05:33.857Z,90.70
2017-12-23T12:08:01.443Z,90.20
2017-12-23T12:10:29.009Z,90.70
2017-12-23T12:12:56.548Z,90.30
2017-12-23T12:15:24.088Z,91.30
2017-12-23T12:17:51.667Z,90.60
2017-12-23T12:20:19.195Z,90.90
2017-12-23T12:22:46.756Z,90.80
2017-12-23T12:25:27.738Z,91.20
2017-12-23T12:37:10.644Z,91.10
2017-12-23T12:39:38.179Z,91.60
2017-12-23T12:42:05.818Z,91.90
2017-12-23T12:44:34.143Z,91.20
2017-12-23T12:47:01.692Z,91.20
2017-12-23T12:49:29.227Z,91.20
2017-12-23T12:51:56.812Z,90.40
2017-12-23T12:54:24.371Z,90.90
2017-12-23T12:56:51.912Z,90.70
2017-12-23T12:59:19.504Z,90.70
2017-12-23T13:01:47.042Z,90.70
2017-12-23T13:04:16.364Z,90.90
2017-12-23T13:06:43.932Z,90.90
2017-12-23T13:09:11.468Z,90.60
2017-12-23T13:11:39.008Z,90.80
2017-12-23T13:14:06.567Z,90.90
2017-12-23T13:16:34.100Z,90.30
2017-12-23T13:19:02.393Z,88.00
2017-12-23T13:21:30.775Z,88.80
2017-12-23T13:23:58.303Z,88.80
2017-12-23T13:26:25.838Z,90.30
2017-12-23T13:28:53.391Z,90.10
2017-12-23T13:31:20.916Z,90.30
2017-12-23T13:33:48.448Z,88.70
2017-12-23T13:36:16.512Z,89.20
2017-12-23T13:38:44.496Z,89.60
2017-12-23T13:41:14.748Z,88.30
2017-12-23T13:43:42.344Z,88.30
2017-12-23T13:46:09.917Z,89.30
2017-12-23T13:48:37.455Z,89.90
2017-12-23T13:51:05.020Z,90.00
2017-12-23T13:53:32.553Z,90.00
2017-12-23T13:56:00.096Z,90.30
2017-12-23T13:58:27.702Z,90.30
2017-12-23T14:00:55.233Z,90.00
2017-12-23T14:03:22.763Z,90.00
2017-12-23T14:05:51.159Z,90.30
2017-12-23T14:08:18.760Z,90.30
2017-12-23T14:10:46.356Z,89.70
2017-12-23T14:13:26.863Z,90.00
2017-12-23T14:18:31.227Z,90.10
2017-12-23T14:21:00.390Z,90.10
2017-12-23T14:23:28.759Z,90.30
2017-12-23T14:25:56.392Z,90.30
2017-12-23T14:28:24.119Z,90.50
2017-12-23T14:30:51.690Z,90.50
2017-12-23T14:33:19.255Z,90.50
2017-12-23T14:35:46.800Z,90.50
2017-12-23T14:38:25.315Z,90.90
2017-12-23T14:43:45.468Z,90.90
2017-12-23T14:46:15.738Z,90.90
2017-12-23T14:48:43.317Z,90.80
2017-12-23T14:51:11.070Z,90.80
2017-12-23T14:53:38.615Z,90.90
2017-12-23T14:56:06.161Z,91.00
2017-12-23T14:58:33.790Z,91.10
2017-12-23T15:01:02.213Z,91.40
2017-12-23T15:03:29.791Z,91.30
2017-12-23T15:05:57.367Z,91.50
2017-12-23T15:08:24.900Z,91.60
2017-12-23T15:10:52.635Z,91.70
2017-12-23T15:13:20.228Z,91.90
2017-12-23T15:15:47.788Z,91.90
2017-12-23T15:18:16.561Z,92.00
2017-12-23T15:20:44.125Z,92.10
2017-12-23T15:23:11.816Z,92.10
2017-12-23T15:25:39.347Z,92.20
2017-12-23T15:28:06.994Z,92.20
2017-12-23T15:30:35.418Z,92.30
2017-12-23T15:33:03.003Z,92.30
2017-12-23T15:35:30.614Z,92.40
2017-12-23T15:37:58.377Z,92.60
2017-12-23T15:40:25.928Z,92.50
2017-12-23T15:42:53.525Z,92.50
2017-12-23T15:45:21.176Z,92.60
2017-12-23T15:47:48.736Z,92.60
2017-12-23T15:50:31.480Z,92.70
2017-12-23T15:52:59.035Z,92.70
2017-12-23T15:55:26.597Z,92.70
2017-12-23T15:57:54.184Z,92.80
2017-12-23T16:00:21.742Z,92.90
2017-12-23T16:02:50.066Z,92.80
2017-12-23T16:05:23.750Z,92.80
2017-12-23T16:07:54.177Z,93.00
2017-12-23T16:10:22.997Z,93.00
2017-12-23T16:12:51.375Z,93.00
2017-12-23T16:15:22.239Z,93.10
2017-12-23T16:17:50.063Z,93.10
2017-12-23T16:20:20.798Z,93.00
2017-12-23T16:22:48.444Z,93.10
2017-12-23T16:25:16.502Z,92.70
2017-12-23T16:27:44.765Z,92.50
2017-12-23T16:30:13.979Z,92.30
2017-12-23T16:32:41.527Z,92.30
2017-12-23T16:35:09.904Z,92.10
2017-12-23T16:37:38.203Z,92.10
2017-12-23T16:40:05.730Z,92.10
2017-12-23T16:45:12.421Z,92.30
2017-12-23T16:47:40.264Z,92.50
2017-12-23T16:50:07.884Z,92.70
2017-12-23T16:52:35.419Z,92.90
2017-12-23T16:55:03.187Z,92.90
2017-12-23T16:57:33.243Z,92.70
2017-12-23T17:00:00.780Z,92.80
2017-12-23T17:02:28.515Z,92.80
2017-12-23T17:04:56.845Z,93.00
2017-12-23T17:07:27.557Z,93.00
2017-12-23T17:09:55.161Z,92.90
2017-12-23T17:12:22.738Z,92.90
2017-12-23T17:14:50.423Z,93.00
2017-12-23T17:17:18.045Z,93.00
2017-12-23T17:19:45.579Z,93.30
2017-12-23T17:22:25.148Z,93.40
2017-12-23T17:28:18.726Z,93.50
2017-12-23T17:30:46.284Z,93.40
2017-12-23T17:33:27.829Z,93.30
2017-12-23T17:39:11.440Z,93.20
2017-12-23T17:41:39.017Z,93.20
2017-12-23T17:44:06.698Z,93.20
2017-12-23T17:46:34.367Z,93.10
2017-12-23T17:49:03.233Z,93.10
2017-12-23T17:51:30.818Z,93.00
2017-12-23T17:53:59.460Z,92.90
2017-12-23T17:56:27.047Z,92.90
2017-12-23T17:58:54.580Z,92.90
2017-12-23T18:01:22.187Z,93.00
2017-12-23T18:03:50.503Z,93.00
2017-12-23T18:06:18.863Z,93.00
2017-12-23T18:08:46.448Z,93.00
2017-12-23T18:11:25.224Z,93.20
2017-12-23T18:24:23.961Z,93.90
2017-12-23T18:26:52.026Z,93.90
2017-12-23T18:29:20.431Z,93.90
2017-12-23T18:31:48.070Z,93.90
2017-12-23T18:34:16.446Z,93.70
2017-12-23T18:36:43.979Z,93.60
2017-12-23T18:39:12.359Z,93.50
2017-12-23T18:41:39.948Z,93.50
2017-12-23T18:44:09.331Z,93.30
2017-12-23T18:46:36.999Z,93.20
2017-12-23T18:49:05.010Z,93.40
2017-12-23T18:51:33.359Z,93.30
2017-12-23T18:54:00.915Z,93.30
2017-12-23T18:56:28.520Z,93.20
2017-12-23T18:58:57.941Z,93.20
2017-12-23T19:01:25.513Z,93.20
2017-12-23T19:03:53.072Z,93.30
2017-12-23T19:06:20.675Z,93.50
2017-12-23T19:08:49.181Z,93.50
2017-12-23T19:11:23.038Z,93.60
2017-12-23T19:13:51.124Z,93.40
2017-12-23T19:16:30.643Z,93.50
2017-12-23T19:18:58.341Z,93.60
2017-12-23T19:21:25.939Z,93.50
2017-12-23T19:23:53.472Z,93.50
2017-12-23T19:26:23.210Z,93.60
2017-12-23T19:28:52.328Z,93.60
2017-12-23T19:31:19.947Z,93.60
2017-12-23T19:33:47.564Z,94.00
2017-12-23T19:36:18.486Z,93.90
2017-12-23T19:38:46.091Z,93.80
2017-12-23T19:41:15.703Z,93.70
2017-12-23T19:43:44.308Z,93.60
2017-12-23T19:46:11.915Z,93.60
2017-12-23T19:48:39.711Z,93.50
2017-12-23T19:51:07.619Z,93.50
2017-12-23T19:53:35.206Z,93.50
2017-12-23T19:56:02.848Z,93.50
2017-12-23T19:58:30.459Z,93.40
2017-12-23T20:00:58.247Z,93.40
2017-12-23T20:03:25.889Z,93.40
2017-12-23T20:05:56.606Z,93.40
2017-12-23T20:08:24.219Z,93.60
2017-12-23T20:10:51.878Z,93.30
2017-12-23T20:13:19.480Z,93.20
2017-12-23T20:15:47.139Z,93.20
2017-12-23T20:18:16.479Z,93.10
2017-12-23T20:20:44.859Z,93.30
2017-12-23T20:23:13.991Z,93.20
2017-12-23T20:25:41.684Z,93.10
2017-12-23T20:28:09.301Z,92.90
2017-12-23T20:30:36.911Z,92.90
2017-12-23T20:33:04.884Z,92.90
2017-12-23T20:35:32.502Z,92.90
2017-12-23T20:38:00.090Z,92.90
2017-12-23T20:40:27.804Z,92.70
2017-12-23T20:42:55.369Z,92.60
2017-12-23T20:45:23.739Z,92.90
2017-12-23T20:47:52.164Z,92.80
2017-12-23T20:50:19.791Z,92.80
2017-12-23T20:52:48.351Z,92.70
2017-12-23T20:55:16.655Z,92.70
2017-12-23T20:57:44.205Z,92.70
2017-12-23T21:00:11.804Z,92.80
2017-12-23T21:02:39.386Z,92.80
2017-12-23T21:05:07.023Z,93.00
2017-12-23T21:07:34.620Z,93.00
2017-12-23T21:10:02.269Z,93.10
2017-12-23T21:12:29.992Z,93.00
2017-12-23T21:14:57.600Z,93.00
2017-12-23T21:17:25.259Z,93.20
2017-12-23T21:19:52.859Z,93.10
2017-12-23T21:22:20.464Z,93.10
2017-12-23T21:24:48.085Z,93.20
2017-12-23T21:27:16.795Z,93.00
2017-12-23T21:29:44.386Z,93.10
2017-12-23T21:32:12.029Z,93.10
2017-12-23T21:34:39.641Z,93.30
2017-12-23T21:37:08.008Z,93.50
2017-12-23T21:39:35.647Z,93.50
2017-12-23T21:42:03.300Z,93.60
2017-12-23T21:44:30.971Z,93.50
2017-12-23T21:46:58.608Z,93.40
2017-12-23T21:49:26.426Z,93.40
2017-12-23T21:51:54.372Z,93.60
2017-12-23T21:54:22.735Z,93.70
2017-12-23T21:56:50.314Z,93.80
2017-12-23T21:59:17.899Z,93.80
2017-12-23T22:01:45.534Z,93.80
2017-12-23T22:04:23.592Z,93.90
2017-12-23T22:10:29.149Z,93.80
2017-12-23T22:12:57.499Z,94.20
2017-12-23T22:15:25.041Z,94.20
2017-12-23T22:17:52.679Z,94.20
2017-12-23T22:20:20.258Z,94.20
2017-12-23T22:22:47.792Z,94.30
2017-12-23T22:25:16.500Z,94.20
2017-12-23T22:27:44.082Z,94.30
2017-12-23T22:30:11.658Z,94.30
2017-12-23T22:32:39.335Z,94.40
2017-12-23T22:35:07.726Z,94.30
2017-12-23T22:37:36.181Z,94.40
2017-12-23T22:40:03.856Z,94.40
2017-12-23T22:42:35.117Z,94.40
2017-12-23T22:45:03.475Z,94.40
2017-12-23T22:47:31.089Z,94.20
2017-12-23T22:49:58.721Z,94.10
2017-12-23T22:52:26.307Z,94.20
2017-12-23T22:54:54.142Z,94.20
2017-12-23T22:57:22.495Z,94.20
2017-12-23T22:59:50.070Z,94.20
2017-12-23T23:02:17.711Z,94.10
2017-12-23T23:04:45.304Z,94.30
2017-12-23T23:07:24.382Z,94.40
2017-12-23T23:12:35.897Z,94.40
2017-12-23T23:15:03.486Z,94.50
2017-12-23T23:17:31.840Z,94.50
2017-12-23T23:19:59.478Z,94.50
2017-12-23T23:22:27.016Z,94.40
2017-12-23T23:24:54.603Z,94.20
2017-12-23T23:27:22.163Z,94.10
2017-12-23T23:29:49.703Z,94.10
2017-12-23T23:32:17.291Z,94.20
2017-12-23T23:34:44.893Z,94.20
2017-12-23T23:37:12.485Z,94.10
2017-12-23T23:39:40.062Z,94.00
2017-12-23T23:42:07.642Z,94.00
2017-12-23T23:44:35.219Z,93.90
2017-12-23T23:47:02.779Z,93.90
2017-12-23T23:49:30.377Z,94.10
2017-12-23T23:51:57.916Z,93.90
2017-12-23T23:54:26.215Z,93.80
2017-12-23T23:56:54.291Z,93.80
2017-12-23T23:59:21.827Z,93.90
